Barlestone, United Kingdom
Current Conditions -  °F | °C
As of 5:20 PM on Thursday 27 Nov 2014 (Local Time) from EGNX Reporting Station
Broken Clouds Broken Clouds  
Wind Chill: 43°   Ceiling: 1900
Heat Index: 46°   Visibility: 6mi
Dew Point: 43°   Wind: 7mph
Humidity: 87%   Direction: 140°SE
Pressure: 29.59"   Gusts: NA
Location:  52.65°N, 1.37°W
Report Text: EGNX 271720Z 14006KT 9999 SCT014 BKN019 08/06 Q1002
Loading
Personal Weather Stations






























Interactive Weather Map New forecast layout! Learn more

10-Day Weather Forecast

Advertisements
Track Severe Weather on mobile